createdAt,value
2022-12-09T00:01:21.568Z,8.87
2022-12-09T00:03:49.248Z,9.07
2022-12-09T00:06:22.116Z,8.60
2022-12-09T00:08:49.494Z,7.53
2022-12-09T00:11:17.672Z,8.27
2022-12-09T00:13:47.920Z,9.47
2022-12-09T00:16:15.745Z,7.57
2022-12-09T00:18:43.271Z,9.20
2022-12-09T00:21:19.914Z,7.93
2022-12-09T00:23:47.729Z,7.17
2022-12-09T00:26:17.789Z,9.60
2022-12-09T00:28:45.360Z,12.47
2022-12-09T00:31:21.565Z,9.73
2022-12-09T00:33:48.685Z,9.00
2022-12-09T00:36:19.601Z,8.53
2022-12-09T00:38:47.458Z,10.03
2022-12-09T00:41:15.558Z,8.70
2022-12-09T00:43:43.754Z,9.23
2022-12-09T00:46:12.545Z,7.73
2022-12-09T00:48:41.236Z,7.73
2022-12-09T00:51:10.759Z,9.17
2022-12-09T00:53:37.765Z,8.07
2022-12-09T00:56:05.414Z,7.47
2022-12-09T00:58:32.613Z,8.17
2022-12-09T01:00:59.463Z,8.03
2022-12-09T01:03:26.702Z,5.43
2022-12-09T01:05:54.684Z,6.83
2022-12-09T01:08:22.112Z,6.13
2022-12-09T01:10:49.199Z,6.57
2022-12-09T01:13:16.404Z,7.07
2022-12-09T01:15:44.531Z,7.23
2022-12-09T01:18:13.724Z,8.57
2022-12-09T01:20:41.485Z,7.30
2022-12-09T01:23:08.667Z,7.57
2022-12-09T01:25:37.573Z,7.77
2022-12-09T01:28:04.561Z,6.67
2022-12-09T01:30:31.456Z,7.07
2022-12-09T01:32:58.598Z,7.83
2022-12-09T01:35:27.324Z,8.33
2022-12-09T01:37:54.143Z,7.37
2022-12-09T01:40:21.377Z,7.10
2022-12-09T01:42:50.502Z,8.43
2022-12-09T01:45:30.401Z,7.57
2022-12-09T01:48:03.235Z,7.77
2022-12-09T01:50:32.556Z,10.43
2022-12-09T01:52:59.854Z,9.50
2022-12-09T01:55:27.371Z,9.80
2022-12-09T01:57:54.236Z,9.63
2022-12-09T02:00:21.581Z,9.93
2022-12-09T02:02:52.380Z,8.33
2022-12-09T02:05:21.981Z,9.33
2022-12-09T02:07:54.384Z,8.67
2022-12-09T02:10:21.963Z,9.20
2022-12-09T02:13:03.517Z,8.37
2022-12-09T02:15:53.384Z,7.50
2022-12-09T02:18:46.664Z,8.23
2022-12-09T02:21:35.669Z,6.70
2022-12-09T02:24:10.830Z,8.53
2022-12-09T02:26:43.977Z,8.90
2022-12-09T02:29:18.985Z,8.77
2022-12-09T02:32:08.187Z,9.53
2022-12-09T02:34:41.046Z,8.83
2022-12-09T02:37:22.755Z,10.03
2022-12-09T02:40:00.783Z,9.67
2022-12-09T02:42:32.980Z,10.77
2022-12-09T02:45:05.728Z,11.03
2022-12-09T02:47:39.470Z,10.20
2022-12-09T02:50:14.303Z,10.37
2022-12-09T02:52:43.509Z,11.07
2022-12-09T02:55:15.083Z,11.13
2022-12-09T02:57:41.986Z,10.23
2022-12-09T03:00:15.510Z,10.53
2022-12-09T03:02:49.758Z,12.17
2022-12-09T03:05:36.911Z,9.67
2022-12-09T03:08:58.522Z,8.47
2022-12-09T03:11:28.038Z,9.27
2022-12-09T03:13:59.943Z,11.53
2022-12-09T03:17:13.027Z,8.27
2022-12-09T03:19:47.835Z,9.17
2022-12-09T03:22:18.940Z,7.43
2022-12-09T03:24:52.534Z,8.20
2022-12-09T03:27:28.531Z,7.83
2022-12-09T03:29:57.437Z,6.70
2022-12-09T03:32:26.864Z,7.73
2022-12-09T03:35:07.860Z,10.60
2022-12-09T03:37:38.097Z,10.13
2022-12-09T03:40:26.217Z,11.37
2022-12-09T03:43:16.297Z,10.20
2022-12-09T03:45:43.795Z,9.70
2022-12-09T03:48:12.336Z,11.30
2022-12-09T03:50:52.753Z,13.47
2022-12-09T03:53:26.130Z,10.73
2022-12-09T03:56:06.805Z,11.97
2022-12-09T03:58:37.025Z,12.47
2022-12-09T04:01:04.304Z,12.60
2022-12-09T04:03:32.901Z,9.90
2022-12-09T04:05:59.944Z,13.73
2022-12-09T04:08:26.915Z,12.47
2022-12-09T04:10:54.031Z,15.43
2022-12-09T04:13:20.974Z,14.00
2022-12-09T04:15:48.263Z,10.00
2022-12-09T04:18:15.472Z,10.50
2022-12-09T04:20:42.462Z,12.03
2022-12-09T04:23:09.243Z,11.07
2022-12-09T04:25:37.672Z,10.63
2022-12-09T04:28:04.982Z,11.87
2022-12-09T04:30:32.185Z,10.97
2022-12-09T04:33:02.341Z,10.37
2022-12-09T04:35:29.866Z,10.70
2022-12-09T04:37:56.755Z,10.97
2022-12-09T04:40:24.635Z,13.60
2022-12-09T04:42:52.026Z,18.10
2022-12-09T04:45:19.035Z,10.87
2022-12-09T04:47:45.871Z,14.43
2022-12-09T04:50:14.087Z,11.77
2022-12-09T04:52:41.777Z,15.10
2022-12-09T04:55:10.501Z,14.67
2022-12-09T04:57:37.615Z,16.10
2022-12-09T05:00:07.320Z,16.13
2022-12-09T05:02:34.899Z,15.50
2022-12-09T05:05:02.677Z,13.93
2022-12-09T05:07:31.542Z,12.13
2022-12-09T05:09:59.049Z,15.50
2022-12-09T05:12:26.436Z,13.73
2022-12-09T05:14:53.514Z,17.90
2022-12-09T05:17:20.534Z,13.77
2022-12-09T05:19:48.041Z,18.03
2022-12-09T05:22:17.809Z,16.83
2022-12-09T05:24:46.894Z,20.33
2022-12-09T05:27:15.541Z,24.63
2022-12-09T05:29:42.551Z,27.50
2022-12-09T05:32:09.941Z,26.03
2022-12-09T05:34:37.419Z,22.00
2022-12-09T05:37:04.877Z,20.23
2022-12-09T05:39:31.720Z,18.10
2022-12-09T05:41:58.815Z,18.67
2022-12-09T05:44:25.780Z,18.03
2022-12-09T05:46:52.840Z,18.63
2022-12-09T05:49:20.414Z,18.40
2022-12-09T05:51:47.343Z,17.70
2022-12-09T05:54:14.449Z,20.80
2022-12-09T05:56:47.679Z,21.70
2022-12-09T05:59:15.112Z,23.10
2022-12-09T06:01:42.710Z,23.90
2022-12-09T06:04:10.205Z,28.60
2022-12-09T06:06:37.252Z,22.33
2022-12-09T06:09:08.667Z,24.10
2022-12-09T06:11:36.174Z,21.20
2022-12-09T06:14:03.600Z,22.10
2022-12-09T06:16:31.345Z,18.57
2022-12-09T06:18:58.577Z,20.30
2022-12-09T06:21:26.092Z,19.83
2022-12-09T06:23:53.589Z,21.13
2022-12-09T06:26:23.860Z,17.40
2022-12-09T06:28:52.179Z,21.53
2022-12-09T06:31:20.564Z,19.37
2022-12-09T06:33:57.689Z,19.20
2022-12-09T06:36:26.403Z,21.60
2022-12-09T06:38:54.730Z,20.87
2022-12-09T06:41:21.947Z,19.87
2022-12-09T06:43:49.516Z,22.60
2022-12-09T06:46:19.561Z,19.53
2022-12-09T06:48:48.173Z,19.67
2022-12-09T06:51:17.140Z,21.17
2022-12-09T06:53:44.371Z,18.63
2022-12-09T06:56:13.444Z,17.07
2022-12-09T06:58:45.159Z,16.87
2022-12-09T07:01:24.863Z,16.47
2022-12-09T07:03:55.363Z,19.37
2022-12-09T07:06:32.021Z,17.80
2022-12-09T07:09:03.069Z,16.07
2022-12-09T07:11:30.891Z,15.67
2022-12-09T07:13:58.237Z,18.27
2022-12-09T07:16:25.779Z,21.40
2022-12-09T07:18:53.005Z,16.07
2022-12-09T07:21:22.093Z,18.70
2022-12-09T07:23:49.929Z,17.20
2022-12-09T07:26:17.679Z,18.70
2022-12-09T07:28:47.357Z,22.33
2022-12-09T07:31:24.314Z,19.50
2022-12-09T07:33:52.613Z,18.07
2022-12-09T07:36:22.188Z,19.10
2022-12-09T07:38:54.566Z,22.57
2022-12-09T07:41:21.865Z,22.07
2022-12-09T07:43:48.967Z,20.63
2022-12-09T07:46:18.269Z,21.00
2022-12-09T07:48:45.722Z,21.67
2022-12-09T07:51:13.424Z,21.63
2022-12-09T07:53:41.898Z,20.53
2022-12-09T07:56:13.306Z,24.50
2022-12-09T07:58:41.736Z,20.80
2022-12-09T08:01:10.822Z,19.67
2022-12-09T08:03:38.354Z,18.30
2022-12-09T08:06:06.707Z,20.40
2022-12-09T08:08:34.135Z,20.03
2022-12-09T08:11:10.293Z,21.63
2022-12-09T08:13:37.868Z,21.37
2022-12-09T08:16:07.047Z,22.50
2022-12-09T08:18:35.837Z,23.17
2022-12-09T08:21:08.983Z,23.73
2022-12-09T08:23:36.534Z,25.07
2022-12-09T08:26:04.717Z,25.20
2022-12-09T08:28:32.309Z,29.03
2022-12-09T08:31:16.642Z,25.27
2022-12-09T08:33:44.306Z,22.00
2022-12-09T08:36:14.550Z,24.73
2022-12-09T08:38:42.712Z,25.77
2022-12-09T08:41:21.456Z,26.87
2022-12-09T08:43:49.253Z,25.77
2022-12-09T08:46:16.613Z,27.27
2022-12-09T08:48:44.597Z,25.63
2022-12-09T08:51:12.572Z,26.67
2022-12-09T08:53:40.170Z,25.13
2022-12-09T08:56:12.917Z,27.23
2022-12-09T08:58:42.323Z,22.07
2022-12-09T09:01:24.263Z,27.73
2022-12-09T09:03:53.758Z,26.93
2022-12-09T09:06:23.064Z,30.63
2022-12-09T09:09:10.040Z,29.80
2022-12-09T09:11:40.357Z,28.03
2022-12-09T09:14:10.137Z,33.83
2022-12-09T09:16:40.039Z,31.63
2022-12-09T09:19:08.767Z,28.93
2022-12-09T09:21:36.233Z,33.70
2022-12-09T09:24:09.430Z,36.80
2022-12-09T09:26:40.686Z,32.93
2022-12-09T09:29:09.173Z,32.23
2022-12-09T09:31:36.567Z,30.93
2022-12-09T09:34:03.972Z,28.53
2022-12-09T09:36:31.500Z,30.17
2022-12-09T09:38:59.466Z,24.73
2022-12-09T09:41:41.767Z,32.83
2022-12-09T09:44:32.584Z,29.17
2022-12-09T09:47:01.295Z,29.90
2022-12-09T09:49:50.191Z,29.10
2022-12-09T09:52:20.464Z,26.10
2022-12-09T09:54:47.968Z,29.13
2022-12-09T09:57:16.615Z,28.60
2022-12-09T09:59:50.190Z,29.10
2022-12-09T10:02:33.442Z,24.63
2022-12-09T10:05:14.437Z,30.77
2022-12-09T10:07:44.923Z,26.00
2022-12-09T10:10:29.717Z,23.07
2022-12-09T10:13:22.895Z,27.30
2022-12-09T10:16:04.779Z,25.47
2022-12-09T10:18:53.489Z,24.67
2022-12-09T10:21:22.593Z,29.47
2022-12-09T10:23:51.182Z,24.83
2022-12-09T10:26:31.231Z,26.20
2022-12-09T10:29:17.415Z,23.93
2022-12-09T10:31:44.526Z,24.50
2022-12-09T10:34:14.378Z,24.80
2022-12-09T10:36:45.330Z,26.23
2022-12-09T10:39:22.725Z,23.97
2022-12-09T10:42:13.640Z,27.90
2022-12-09T10:44:41.177Z,23.70
2022-12-09T10:47:28.244Z,23.23
2022-12-09T10:49:56.273Z,23.93
2022-12-09T10:52:26.393Z,24.00
2022-12-09T10:54:53.734Z,26.83
2022-12-09T10:57:29.755Z,22.33
2022-12-09T11:00:00.085Z,32.30
2022-12-09T11:02:29.335Z,28.40
2022-12-09T11:04:57.251Z,28.47
2022-12-09T11:07:27.118Z,26.10
2022-12-09T11:09:57.487Z,28.73
2022-12-09T11:12:29.991Z,30.47
2022-12-09T11:15:05.302Z,29.53
2022-12-09T11:17:36.154Z,26.90
2022-12-09T11:20:07.343Z,34.60
2022-12-09T11:22:41.169Z,31.43
2022-12-09T11:25:11.831Z,35.10
2022-12-09T11:27:50.791Z,30.97
2022-12-09T11:30:47.165Z,28.97
2022-12-09T11:33:31.623Z,35.83
2022-12-09T11:36:29.859Z,28.17
2022-12-09T11:39:31.954Z,30.73
2022-12-09T11:42:17.117Z,33.90
2022-12-09T11:44:54.572Z,29.87
2022-12-09T11:47:23.368Z,34.53
2022-12-09T11:50:14.779Z,33.87
2022-12-09T11:52:42.612Z,32.97
2022-12-09T11:55:27.616Z,32.60
2022-12-09T11:58:27.580Z,37.43
2022-12-09T12:01:06.098Z,34.90
2022-12-09T12:03:39.653Z,36.43
2022-12-09T12:06:20.313Z,38.17
2022-12-09T12:08:53.250Z,31.33
2022-12-09T12:11:29.781Z,35.57
2022-12-09T12:14:24.280Z,34.40
2022-12-09T12:17:09.956Z,36.57
2022-12-09T12:19:42.004Z,39.40
2022-12-09T12:22:50.258Z,36.03
2022-12-09T12:25:50.633Z,33.90
2022-12-09T12:28:56.630Z,36.60
2022-12-09T12:31:49.869Z,35.37
2022-12-09T12:34:39.644Z,36.40
2022-12-09T12:37:43.277Z,35.43
2022-12-09T12:40:46.665Z,35.80
2022-12-09T12:44:03.275Z,33.40
2022-12-09T12:46:54.113Z,36.43
2022-12-09T12:49:27.763Z,37.03
2022-12-09T12:52:46.996Z,35.07
2022-12-09T12:55:21.706Z,30.93
2022-12-09T12:58:06.523Z,34.27
2022-12-09T13:00:52.541Z,33.90
2022-12-09T13:03:27.637Z,31.93
2022-12-09T13:05:57.095Z,34.17
2022-12-09T13:08:46.954Z,30.57
2022-12-09T13:11:22.007Z,29.63
2022-12-09T13:13:54.792Z,30.63
2022-12-09T13:16:38.665Z,31.33
2022-12-09T13:19:25.882Z,28.20
2022-12-09T13:21:53.029Z,28.20
2022-12-09T13:24:27.135Z,28.63
2022-12-09T13:27:03.264Z,30.03
2022-12-09T13:29:42.375Z,28.63
2022-12-09T13:32:43.185Z,33.87
2022-12-09T13:35:33.157Z,25.20
2022-12-09T13:38:00.701Z,26.10
2022-12-09T13:40:35.876Z,24.57
2022-12-09T13:43:02.626Z,30.53
2022-12-09T13:45:42.848Z,24.53
2022-12-09T13:48:16.922Z,26.20
2022-12-09T13:50:51.642Z,31.97
2022-12-09T13:53:21.276Z,29.17
2022-12-09T13:56:08.290Z,27.87
2022-12-09T13:59:08.863Z,28.33
2022-12-09T14:01:51.889Z,27.10
2022-12-09T14:04:26.797Z,25.93
2022-12-09T14:07:10.468Z,25.70
2022-12-09T14:09:40.242Z,27.77
2022-12-09T14:12:28.154Z,24.83
2022-12-09T14:15:05.454Z,25.67
2022-12-09T14:17:38.252Z,22.90
2022-12-09T14:20:21.239Z,24.50
2022-12-09T14:23:07.100Z,28.40
2022-12-09T14:25:34.171Z,24.50
2022-12-09T14:28:10.047Z,22.17
2022-12-09T14:31:06.600Z,22.87
2022-12-09T14:33:35.451Z,23.30
2022-12-09T14:36:08.400Z,21.97
2022-12-09T14:41:58.832Z,22.70
2022-12-09T14:44:51.289Z,22.80
2022-12-09T14:47:23.502Z,25.47
2022-12-09T14:49:52.247Z,24.30
2022-12-09T14:52:31.081Z,26.73
2022-12-09T14:55:01.753Z,21.43
2022-12-09T14:57:42.437Z,21.70
2022-12-09T15:00:28.153Z,21.63
2022-12-09T15:03:30.748Z,21.87
2022-12-09T15:05:54.889Z,23.30
2022-12-09T15:08:41.431Z,23.93
2022-12-09T15:11:25.578Z,21.17
2022-12-09T15:13:54.753Z,28.60
2022-12-09T15:16:26.745Z,25.00
2022-12-09T15:18:54.849Z,26.73
2022-12-09T15:21:30.331Z,29.43
2022-12-09T15:23:59.580Z,23.33
2022-12-09T15:26:28.194Z,22.03
2022-12-09T15:28:57.274Z,21.87
2022-12-09T15:31:27.804Z,20.03
2022-12-09T15:33:57.621Z,18.57
2022-12-09T15:36:32.375Z,23.00
2022-12-09T15:39:07.336Z,20.83
2022-12-09T15:42:02.469Z,24.97
2022-12-09T15:44:42.235Z,20.57
2022-12-09T15:47:43.842Z,23.33
2022-12-09T15:50:21.531Z,19.90
2022-12-09T15:52:55.816Z,18.77
2022-12-09T15:55:31.241Z,18.43
2022-12-09T15:58:00.524Z,20.60
2022-12-09T16:00:28.525Z,20.63
2022-12-09T16:02:56.512Z,21.40
2022-12-09T16:05:25.677Z,20.60
2022-12-09T16:07:58.721Z,20.23
2022-12-09T16:10:29.058Z,20.70
2022-12-09T16:13:05.013Z,17.23
2022-12-09T16:15:53.667Z,18.60
2022-12-09T16:18:32.450Z,19.67
2022-12-09T16:21:36.248Z,19.10
2022-12-09T16:24:11.570Z,21.67
2022-12-09T16:26:44.296Z,19.67
2022-12-09T16:29:22.666Z,23.07
2022-12-09T16:32:21.738Z,31.17
2022-12-09T16:34:52.480Z,41.50
2022-12-09T16:37:35.156Z,41.43
2022-12-09T16:40:21.935Z,40.00
2022-12-09T16:42:51.383Z,31.33
2022-12-09T16:45:29.809Z,30.23
2022-12-09T16:47:58.340Z,24.83
2022-12-09T16:50:32.601Z,24.47
2022-12-09T16:53:00.039Z,25.93
2022-12-09T16:55:29.181Z,23.27
2022-12-09T16:57:57.512Z,24.37
2022-12-09T17:00:25.100Z,19.30
2022-12-09T17:03:05.473Z,19.27
2022-12-09T17:05:32.436Z,20.80
2022-12-09T17:07:59.709Z,17.37
2022-12-09T17:10:26.530Z,21.17
2022-12-09T17:12:53.871Z,16.80
2022-12-09T17:15:21.167Z,18.47
2022-12-09T17:17:49.147Z,17.73
2022-12-09T17:20:16.907Z,20.20
2022-12-09T17:22:44.880Z,18.37
2022-12-09T17:25:11.833Z,19.50
2022-12-09T17:27:38.652Z,17.47
2022-12-09T17:30:06.106Z,18.33
2022-12-09T17:32:32.986Z,19.77
2022-12-09T17:34:59.990Z,17.53
2022-12-09T17:40:47.011Z,17.00
2022-12-09T17:43:14.254Z,19.50
2022-12-09T17:45:42.418Z,18.13
2022-12-09T17:48:09.609Z,23.67
2022-12-09T17:50:39.876Z,22.57
2022-12-09T17:53:07.384Z,25.07
2022-12-09T17:55:38.562Z,22.43
2022-12-09T17:58:05.439Z,17.53
2022-12-09T18:00:33.718Z,21.70
2022-12-09T18:03:00.680Z,19.00
2022-12-09T18:05:27.545Z,20.00
2022-12-09T18:07:54.735Z,19.27
2022-12-09T18:10:21.808Z,15.20
2022-12-09T18:12:48.654Z,17.20
2022-12-09T18:15:15.613Z,21.63
2022-12-09T18:17:42.786Z,17.33
2022-12-09T18:20:11.677Z,17.90
2022-12-09T18:22:39.185Z,20.20
2022-12-09T18:25:07.178Z,16.00
2022-12-09T18:27:34.039Z,18.37
2022-12-09T18:30:00.818Z,17.17
2022-12-09T18:32:31.488Z,18.87
2022-12-09T18:35:02.590Z,16.20
2022-12-09T18:37:30.472Z,15.60
2022-12-09T18:39:58.319Z,15.53
2022-12-09T18:42:25.224Z,16.60
2022-12-09T18:44:52.041Z,15.80
2022-12-09T18:47:19.008Z,15.93
2022-12-09T18:49:45.843Z,14.67
2022-12-09T18:52:12.638Z,16.63
2022-12-09T18:54:39.724Z,16.13
2022-12-09T18:57:06.616Z,16.17
2022-12-09T18:59:33.482Z,14.57
2022-12-09T19:02:00.456Z,13.10
2022-12-09T19:04:29.028Z,27.30
2022-12-09T19:06:58.639Z,22.73
2022-12-09T19:09:31.791Z,19.13
2022-12-09T19:12:11.281Z,18.70
2022-12-09T19:14:45.695Z,17.93
2022-12-09T19:17:12.696Z,18.37
2022-12-09T19:19:39.623Z,20.23
2022-12-09T19:22:08.252Z,20.40
2022-12-09T19:24:39.776Z,16.93
2022-12-09T19:27:09.661Z,19.77
2022-12-09T19:29:36.714Z,19.50
2022-12-09T19:32:04.307Z,16.43
2022-12-09T19:34:32.218Z,16.27
2022-12-09T19:37:00.910Z,20.23
2022-12-09T19:39:31.329Z,19.23
2022-12-09T19:41:59.285Z,17.00
2022-12-09T19:44:52.385Z,16.33
2022-12-09T19:47:13.776Z,17.97
2022-12-09T19:49:42.102Z,15.73
2022-12-09T19:52:08.961Z,15.90
2022-12-09T19:54:36.052Z,17.63
2022-12-09T19:57:02.970Z,17.30
2022-12-09T19:59:29.780Z,22.70
2022-12-09T20:01:56.785Z,21.00
2022-12-09T20:07:12.497Z,19.90
2022-12-09T20:09:39.775Z,21.40
2022-12-09T20:12:07.093Z,19.67
2022-12-09T20:14:34.044Z,25.10
2022-12-09T20:17:01.097Z,23.80
2022-12-09T20:19:28.025Z,25.97
2022-12-09T20:21:54.901Z,22.40
2022-12-09T20:24:21.940Z,20.67
2022-12-09T20:26:48.935Z,19.63
2022-12-09T20:29:15.683Z,20.33
2022-12-09T20:31:43.073Z,20.10
2022-12-09T20:34:16.259Z,16.10
2022-12-09T20:36:44.684Z,21.10
2022-12-09T20:39:20.176Z,19.77
2022-12-09T20:41:48.290Z,22.93
2022-12-09T20:44:16.553Z,19.57
2022-12-09T20:46:49.236Z,22.80
2022-12-09T20:49:16.285Z,22.80
2022-12-09T20:51:48.631Z,17.40
2022-12-09T20:54:15.528Z,17.60
2022-12-09T20:56:42.488Z,19.27
2022-12-09T20:59:11.818Z,19.97
2022-12-09T21:01:39.231Z,19.20
2022-12-09T21:04:08.298Z,17.20
2022-12-09T21:06:38.086Z,18.67
2022-12-09T21:09:08.187Z,18.83
2022-12-09T21:11:36.212Z,18.10
2022-12-09T21:14:04.801Z,16.33
2022-12-09T21:16:33.441Z,20.07
2022-12-09T21:19:02.581Z,19.83
2022-12-09T21:21:32.137Z,18.97
2022-12-09T21:24:00.539Z,17.37
2022-12-09T21:26:28.513Z,17.80
2022-12-09T21:28:55.952Z,15.97
2022-12-09T21:31:25.879Z,17.10
2022-12-09T21:33:54.725Z,17.23
2022-12-09T21:36:24.459Z,16.33
2022-12-09T21:38:52.107Z,16.40
2022-12-09T21:41:21.912Z,17.17
2022-12-09T21:43:54.912Z,15.03
2022-12-09T21:46:29.779Z,15.23
2022-12-09T21:49:03.579Z,16.70
2022-12-09T21:51:32.386Z,16.17
2022-12-09T21:53:59.577Z,17.37
2022-12-09T21:56:30.847Z,12.80
2022-12-09T21:58:58.925Z,15.47
2022-12-09T22:01:31.107Z,13.20
2022-12-09T22:03:59.703Z,15.47
2022-12-09T22:06:27.802Z,13.60
2022-12-09T22:08:54.688Z,15.70
2022-12-09T22:11:26.665Z,13.63
2022-12-09T22:13:56.728Z,13.30
2022-12-09T22:16:26.694Z,14.23
2022-12-09T22:18:56.406Z,16.97
2022-12-09T22:21:27.032Z,14.73
2022-12-09T22:23:57.303Z,12.70
2022-12-09T22:26:25.041Z,13.23
2022-12-09T22:28:53.038Z,15.07
2022-12-09T22:31:25.820Z,15.73
2022-12-09T22:33:56.157Z,15.93
2022-12-09T22:36:23.465Z,16.77
2022-12-09T22:38:51.239Z,16.60
2022-12-09T22:41:21.462Z,18.37
2022-12-09T22:43:49.838Z,18.77
2022-12-09T22:46:25.415Z,19.13
2022-12-09T22:48:52.563Z,18.60
2022-12-09T22:51:23.154Z,19.57
2022-12-09T22:53:51.823Z,22.63
2022-12-09T22:56:20.129Z,16.13
2022-12-09T22:58:47.372Z,15.47
2022-12-09T23:01:17.965Z,18.17
2022-12-09T23:03:45.366Z,16.00
2022-12-09T23:06:13.068Z,15.53
2022-12-09T23:08:41.475Z,16.63
2022-12-09T23:11:14.174Z,14.73
2022-12-09T23:13:41.617Z,15.73
2022-12-09T23:16:12.528Z,14.47
2022-12-09T23:18:41.225Z,18.23
2022-12-09T23:21:15.719Z,14.53
2022-12-09T23:23:43.365Z,13.07
2022-12-09T23:26:16.460Z,13.60
2022-12-09T23:28:47.340Z,14.33
2022-12-09T23:31:17.229Z,14.73
2022-12-09T23:33:45.335Z,11.87
2022-12-09T23:36:15.960Z,16.47
2022-12-09T23:38:43.743Z,15.33
2022-12-09T23:41:12.489Z,14.50
2022-12-09T23:43:39.575Z,13.83
2022-12-09T23:46:15.295Z,15.70
2022-12-09T23:48:44.208Z,15.80
2022-12-09T23:51:13.205Z,16.10
2022-12-09T23:53:41.184Z,16.60
2022-12-09T23:56:12.087Z,15.27
2022-12-09T23:58:40.044Z,16.87
